Time;durP1;ratioP1;P1;durP2;ratioP2;P2;SDS_P1;SDS_P2;PMS_P1;PMS_P2;Temp;Humidity;BMP_temperature;BMP_pressure;BME280_temperature;BME280_humidity;BME280_pressure;Samples;Min_cycle;Max_cycle;Signal;HPM_P1;HPM_P2
2022/01/22 00:01:06;;;;;;;24.30;14.20;;;2.30;59.60;;;;;;4993558;28;20171;-77
2022/01/22 00:03:33;;;;;;;25.30;15.07;;;2.30;59.60;;;;;;4993202;28;20423;-76
2022/01/22 00:05:58;;;;;;;28.83;14.73;;;2.30;59.70;;;;;;4993266;28;20038;-78
2022/01/22 00:08:24;;;;;;;26.40;14.40;;;2.40;59.60;;;;;;4993358;28;20101;-77
2022/01/22 00:10:51;;;;;;;28.43;16.13;;;2.30;59.60;;;;;;4993229;28;20025;-77
2022/01/22 00:15:44;;;;;;;24.70;15.13;;;2.30;59.40;;;;;;4993239;28;20125;-77
2022/01/22 00:18:11;;;;;;;27.00;15.13;;;2.30;59.50;;;;;;4993045;28;20033;-77
2022/01/22 00:20:37;;;;;;;26.83;15.80;;;2.30;59.80;;;;;;4995308;28;20038;-76
2022/01/22 00:23:03;;;;;;;29.47;16.70;;;2.30;59.80;;;;;;4996657;28;20093;-77
2022/01/22 00:25:29;;;;;;;30.63;17.97;;;2.30;59.60;;;;;;4996474;28;20030;-77
2022/01/22 00:27:55;;;;;;;29.73;17.70;;;2.20;59.90;;;;;;4995139;28;20395;-77
2022/01/22 00:30:24;;;;;;;30.33;16.27;;;2.20;60.00;;;;;;4996423;28;20026;-77
2022/01/22 00:32:51;;;;;;;29.33;15.97;;;2.20;60.40;;;;;;4996482;28;20034;-77
2022/01/22 00:35:18;;;;;;;30.50;17.50;;;2.20;60.40;;;;;;4996183;28;20053;-77
2022/01/22 00:37:47;;;;;;;32.47;18.30;;;2.20;60.20;;;;;;4994971;28;20114;-77
2022/01/22 00:40:14;;;;;;;30.93;18.87;;;2.20;60.00;;;;;;4996566;28;20133;-77
2022/01/22 00:42:41;;;;;;;23.50;15.33;;;2.10;59.90;;;;;;4996199;28;20503;-76
2022/01/22 00:45:07;;;;;;;21.57;13.37;;;2.10;60.30;;;;;;4995943;28;20027;-77
2022/01/22 00:47:33;;;;;;;25.90;15.93;;;2.10;60.90;;;;;;4996341;28;20064;-77
2022/01/22 00:49:59;;;;;;;33.33;17.57;;;2.10;60.60;;;;;;4995940;28;20105;-77
2022/01/22 00:52:25;;;;;;;31.90;18.23;;;2.10;60.40;;;;;;4996295;28;20098;-77
2022/01/22 00:54:51;;;;;;;33.80;19.07;;;2.00;60.60;;;;;;4995922;28;20026;-77
2022/01/22 00:57:16;;;;;;;27.13;16.57;;;2.00;60.80;;;;;;4995973;28;20437;-77
2022/01/22 00:59:42;;;;;;;32.30;18.43;;;2.00;61.30;;;;;;4995862;28;20034;-77
2022/01/22 01:02:08;;;;;;;36.20;19.43;;;2.00;61.20;;;;;;4995640;28;20379;-77
2022/01/22 01:04:35;;;;;;;34.63;18.87;;;2.00;60.80;;;;;;4995290;28;20153;-77
2022/01/22 01:07:01;;;;;;;36.60;18.50;;;1.90;60.80;;;;;;4995910;28;20034;-77
2022/01/22 01:09:27;;;;;;;31.83;17.60;;;1.90;61.30;;;;;;4995727;28;20101;-77
2022/01/22 01:11:58;;;;;;;30.80;18.07;;;1.90;60.80;;;;;;4995581;28;20109;-77
2022/01/22 01:14:52;;;;;;;28.47;18.60;;;1.90;60.60;;;;;;4994176;28;20030;-77
2022/01/22 01:17:23;;;;;;;28.40;17.47;;;1.80;60.60;;;;;;4995192;28;20034;-77
2022/01/22 01:35:56;;;;;;;24.70;12.10;;;1.80;61.20;;;;;;4995107;28;20043;-77
2022/01/22 01:38:23;;;;;;;25.33;13.40;;;1.80;61.30;;;;;;4995005;28;20033;-77
2022/01/22 01:40:59;;;;;;;21.97;13.23;;;1.80;61.30;;;;;;4995385;28;20125;-77
2022/01/22 01:43:31;;;;;;;21.40;12.67;;;1.70;61.10;;;;;;4995210;28;20022;-77
2022/01/22 01:45:57;;;;;;;20.10;12.07;;;1.70;60.90;;;;;;4995347;28;20026;-77
2022/01/22 01:48:27;;;;;;;22.13;11.87;;;1.70;61.20;;;;;;4994981;28;20081;-77
2022/01/22 01:50:55;;;;;;;23.43;13.23;;;1.70;61.30;;;;;;4995133;28;20057;-77
2022/01/22 01:53:42;;;;;;;24.53;14.77;;;1.70;61.40;;;;;;5010219;28;20383;-78
2022/01/22 01:57:25;;;;;;;26.40;13.40;;;1.80;61.30;;;;;;4994597;28;20035;-77
2022/01/22 01:58:55;;;;;;;30.43;15.27;;;1.80;60.80;;;;;;4992212;28;20117;-77
2022/01/22 02:01:21;;;;;;;24.67;14.67;;;1.70;60.50;;;;;;4992041;28;20030;-77
2022/01/22 02:03:46;;;;;;;25.33;15.33;;;1.70;60.60;;;;;;4990830;28;20180;-76
2022/01/22 02:06:12;;;;;;;27.50;14.80;;;1.60;61.10;;;;;;4994306;28;20037;-76
2022/01/22 02:08:39;;;;;;;26.60;14.73;;;1.60;61.20;;;;;;4994502;28;20395;-77
2022/01/22 02:11:06;;;;;;;26.23;15.23;;;1.50;61.20;;;;;;4994031;28;20054;-76
2022/01/22 02:24:46;;;;;;;25.00;14.83;;;1.30;61.50;;;;;;4994657;28;20387;-77
2022/01/22 02:27:13;;;;;;;25.47;14.43;;;1.40;61.80;;;;;;4994478;28;20064;-77
2022/01/22 02:29:39;;;;;;;23.83;13.70;;;1.30;61.70;;;;;;4992741;28;20022;-77
2022/01/22 02:34:58;;;;;;;25.93;14.73;;;1.30;61.80;;;;;;4994175;28;20026;-77
2022/01/22 02:37:30;;;;;;;27.13;15.00;;;1.30;62.30;;;;;;4994064;28;20499;-77
2022/01/22 02:40:08;;;;;;;23.60;13.68;;;1.30;62.40;;;;;;5009054;28;20042;-77
2022/01/22 02:42:35;;;;;;;23.23;13.40;;;1.30;62.60;;;;;;4993247;28;20045;-76
2022/01/22 02:45:07;;;;;;;28.83;15.27;;;1.30;62.50;;;;;;4993880;28;20368;-77
2022/01/22 02:47:32;;;;;;;23.60;14.03;;;1.30;62.30;;;;;;4994098;28;20045;-77
2022/01/22 02:49:58;;;;;;;23.50;13.87;;;1.40;62.20;;;;;;4993919;28;20014;-77
2022/01/22 02:52:24;;;;;;;27.83;14.00;;;1.40;62.10;;;;;;4994078;28;20027;-77
2022/01/22 02:54:50;;;;;;;22.63;13.37;;;1.30;62.30;;;;;;4992918;28;20434;-77
2022/01/22 02:57:16;;;;;;;30.13;14.43;;;1.30;62.30;;;;;;4993766;28;20030;-77
2022/01/22 02:59:42;;;;;;;24.77;13.90;;;1.30;62.30;;;;;;4993325;28;20034;-77
2022/01/22 03:02:13;;;;;;;24.50;13.70;;;1.30;62.70;;;;;;4993778;28;20077;-77
2022/01/22 03:04:39;;;;;;;29.17;13.37;;;1.30;62.80;;;;;;4993890;28;20054;-77
2022/01/22 03:07:06;;;;;;;25.10;14.17;;;1.30;62.90;;;;;;4993913;28;20031;-77
2022/01/22 03:09:39;;;;;;;22.73;12.93;;;1.30;62.80;;;;;;4993898;28;20033;-77
2022/01/22 03:17:51;;;;;;;22.13;13.23;;;1.40;63.10;;;;;;4993674;28;20033;-76
2022/01/22 03:22:17;;;;;;;26.63;14.13;;;1.50;62.70;;;;;;4993684;28;20034;-76
2022/01/22 03:27:29;;;;;;;23.70;14.23;;;1.50;62.20;;;;;;4993805;28;20037;-77
2022/01/22 03:29:56;;;;;;;22.90;13.73;;;1.50;62.20;;;;;;4993637;28;20490;-77
2022/01/22 03:32:23;;;;;;;24.50;13.57;;;1.50;62.10;;;;;;4993433;28;20421;-77
2022/01/22 03:34:58;;;;;;;25.83;13.30;;;1.40;62.50;;;;;;4993275;28;20463;-77
2022/01/22 03:37:25;;;;;;;22.57;12.77;;;1.40;62.90;;;;;;4993485;28;20053;-77
2022/01/22 03:39:53;;;;;;;20.90;12.77;;;1.40;63.70;;;;;;4993465;28;20084;-77
2022/01/22 03:42:19;;;;;;;23.40;12.33;;;1.40;63.80;;;;;;4993558;28;20609;-77
2022/01/22 03:44:44;;;;;;;22.53;12.83;;;1.40;63.30;;;;;;4993190;28;20129;-77
2022/01/22 03:47:10;;;;;;;22.70;12.57;;;1.40;63.70;;;;;;4993405;28;20510;-77
2022/01/22 03:49:36;;;;;;;23.80;12.97;;;1.40;63.50;;;;;;4993503;28;20034;-76
2022/01/22 03:52:02;;;;;;;20.60;12.30;;;1.40;63.70;;;;;;4993265;28;20022;-77
2022/01/22 03:54:28;;;;;;;24.70;12.10;;;1.40;63.60;;;;;;4993850;28;20061;-76
2022/01/22 03:56:53;;;;;;;19.97;12.27;;;1.40;63.10;;;;;;4997237;28;20022;-76
2022/01/22 03:59:19;;;;;;;22.93;13.53;;;1.40;63.00;;;;;;4996788;28;20052;-77
2022/01/22 04:04:26;;;;;;;22.40;12.27;;;1.40;63.50;;;;;;4996923;28;20038;-77
2022/01/22 04:09:41;;;;;;;26.70;12.27;;;1.40;63.30;;;;;;4997180;28;20045;-76
2022/01/22 04:12:09;;;;;;;22.57;11.87;;;1.50;63.10;;;;;;4996800;28;20049;-76
2022/01/22 04:14:36;;;;;;;18.13;11.37;;;1.40;63.00;;;;;;4996576;28;20022;-77
2022/01/22 04:24:49;;;;;;;22.00;11.70;;;1.40;63.00;;;;;;4996758;28;20018;-76
2022/01/22 04:25:25;;;;;;;18.17;10.90;;;1.40;63.30;;;;;;4996478;28;20460;-76
2022/01/22 04:27:53;;;;;;;17.97;11.27;;;1.40;63.30;;;;;;4996465;28;20471;-77
2022/01/22 04:30:22;;;;;;;22.83;11.70;;;1.40;63.50;;;;;;4996579;28;20014;-77
2022/01/22 04:32:48;;;;;;;22.70;11.30;;;1.40;63.80;;;;;;4996263;28;20091;-76
2022/01/22 04:35:15;;;;;;;19.83;12.10;;;1.40;63.70;;;;;;4996090;28;20043;-76
2022/01/22 04:37:41;;;;;;;20.83;11.50;;;1.40;63.80;;;;;;4996277;28;20030;-77
2022/01/22 04:40:08;;;;;;;21.43;12.00;;;1.40;64.20;;;;;;4996065;28;20475;-77
2022/01/22 04:42:36;;;;;;;20.53;11.47;;;1.50;64.00;;;;;;4996187;28;20479;-76
2022/01/22 04:56:19;;;;;;;18.27;11.83;;;1.50;63.70;;;;;;4980226;28;20041;-76
2022/01/22 04:58:44;;;;;;;19.73;11.00;;;1.50;64.10;;;;;;4995966;28;20026;-77
2022/01/22 05:01:10;;;;;;;18.57;11.33;;;1.50;64.00;;;;;;4996113;28;20042;-77
2022/01/22 05:03:36;;;;;;;20.43;10.80;;;1.50;63.90;;;;;;4995799;28;20379;-77
2022/01/22 05:06:06;;;;;;;20.37;10.87;;;1.50;64.20;;;;;;4995757;28;20109;-76
2022/01/22 05:08:32;;;;;;;20.67;11.67;;;1.50;64.50;;;;;;4995716;28;20029;-77
2022/01/22 05:10:57;;;;;;;19.10;10.83;;;1.50;64.20;;;;;;4995457;28;20027;-77
2022/01/22 05:13:23;;;;;;;20.97;11.77;;;1.50;64.40;;;;;;4995823;28;20495;-77
2022/01/22 05:15:48;;;;;;;22.40;11.90;;;1.50;64.50;;;;;;4995504;28;20419;-77
2022/01/22 05:18:15;;;;;;;19.37;10.87;;;1.50;64.50;;;;;;4995683;28;20026;-77
2022/01/22 05:20:54;;;;;;;22.57;12.20;;;1.50;64.40;;;;;;4994261;28;20037;-77
2022/01/22 05:23:23;;;;;;;22.00;11.90;;;1.60;64.80;;;;;;4995418;28;20023;-77
2022/01/22 05:25:57;;;;;;;19.73;10.37;;;1.60;64.90;;;;;;4995323;28;20096;-77
2022/01/22 05:31:05;;;;;;;23.57;11.37;;;1.60;65.10;;;;;;4995549;28;20034;-76
2022/01/22 05:39:00;;;;;;;19.83;10.10;;;1.60;65.40;;;;;;4995470;28;20061;-77
2022/01/22 05:41:25;;;;;;;20.20;10.47;;;1.70;65.80;;;;;;4995240;28;20463;-77
2022/01/22 05:43:51;;;;;;;18.80;10.13;;;1.70;66.00;;;;;;4995094;28;20081;-77
2022/01/22 05:46:17;;;;;;;15.60;9.20;;;1.70;65.60;;;;;;4994643;28;20034;-77
2022/01/22 05:48:42;;;;;;;21.73;10.83;;;1.80;65.50;;;;;;5026519;28;20034;-78
2022/01/22 05:51:08;;;;;;;15.37;9.83;;;1.80;65.20;;;;;;4995007;28;20392;-77
2022/01/22 05:53:48;;;;;;;21.83;10.00;;;1.80;64.90;;;;;;4994786;28;20053;-76
2022/01/22 06:01:43;;;;;;;17.63;10.50;;;1.90;64.90;;;;;;4994946;28;20049;-77
2022/01/22 06:04:09;;;;;;;20.13;11.27;;;1.80;64.70;;;;;;4994883;28;20070;-77
2022/01/22 06:06:35;;;;;;;25.57;11.27;;;1.80;64.60;;;;;;4994484;28;20105;-77
2022/01/22 06:09:04;;;;;;;20.07;11.03;;;1.80;64.90;;;;;;4994482;28;20101;-76
2022/01/22 06:11:30;;;;;;;24.43;12.37;;;1.80;65.00;;;;;;5009775;28;20023;-77
2022/01/22 06:13:56;;;;;;;22.37;10.80;;;1.80;65.00;;;;;;4994801;28;20038;-78
2022/01/22 06:16:23;;;;;;;18.13;11.03;;;1.80;65.40;;;;;;4994584;28;20014;-77
2022/01/22 06:18:51;;;;;;;20.40;11.17;;;1.80;65.70;;;;;;4993899;28;20105;-77
2022/01/22 06:21:17;;;;;;;22.10;11.60;;;1.80;65.50;;;;;;4993010;28;20030;-77
2022/01/22 06:23:45;;;;;;;18.47;11.13;;;1.80;65.60;;;;;;4992960;28;20410;-76
2022/01/22 06:26:12;;;;;;;22.43;11.73;;;1.80;65.90;;;;;;4994194;28;20022;-76
2022/01/22 06:28:37;;;;;;;20.17;11.07;;;1.80;66.00;;;;;;4994518;28;20034;-77
2022/01/22 06:31:04;;;;;;;19.30;11.90;;;1.90;66.80;;;;;;4994193;28;20057;-76
2022/01/22 06:33:30;;;;;;;19.43;11.20;;;1.80;66.00;;;;;;4994235;28;20027;-77
2022/01/22 06:35:56;;;;;;;18.47;10.50;;;1.80;66.30;;;;;;5009199;28;20054;-77
2022/01/22 06:38:22;;;;;;;22.43;11.20;;;1.80;66.60;;;;;;4993949;28;20460;-76
2022/01/22 06:43:33;;;;;;;18.37;9.57;;;1.90;66.50;;;;;;4994230;28;20084;-76
2022/01/22 06:45:58;;;;;;;15.87;9.20;;;1.90;66.70;;;;;;4994058;28;20485;-76
2022/01/22 06:48:24;;;;;;;17.47;9.93;;;1.90;66.90;;;;;;4993847;28;20153;-77
2022/01/22 06:50:50;;;;;;;15.53;9.03;;;2.00;67.10;;;;;;5009057;28;20034;-77
2022/01/22 06:53:16;;;;;;;19.93;8.93;;;2.00;67.30;;;;;;4994108;28;20487;-77
2022/01/22 06:55:46;;;;;;;17.43;8.63;;;2.00;67.30;;;;;;4993791;28;20041;-76
2022/01/22 06:58:11;;;;;;;16.20;9.03;;;2.00;67.40;;;;;;5025413;28;20030;-77
2022/01/22 07:00:37;;;;;;;14.67;8.67;;;2.00;67.50;;;;;;4993773;28;20042;-77
2022/01/22 07:03:04;;;;;;;18.80;9.70;;;2.00;67.70;;;;;;4994023;28;20022;-77
2022/01/22 07:05:30;;;;;;;16.50;8.83;;;2.10;67.70;;;;;;4993465;28;20080;-77
2022/01/22 07:07:56;;;;;;;13.97;8.60;;;2.10;67.80;;;;;;4993722;28;20488;-76
2022/01/22 07:10:22;;;;;;;17.47;9.33;;;2.10;67.80;;;;;;5008964;28;20037;-77
2022/01/22 07:12:47;;;;;;;18.93;8.77;;;2.10;67.70;;;;;;4993754;28;20030;-77
2022/01/22 07:15:13;;;;;;;12.73;7.97;;;2.20;68.40;;;;;;4994061;28;20037;-77
2022/01/22 07:17:40;;;;;;;12.53;7.77;;;2.20;68.10;;;;;;4997098;28;20022;-77
2022/01/22 07:20:17;;;;;;;15.67;8.63;;;2.20;68.20;;;;;;4993332;28;20069;-76
2022/01/22 07:25:15;;;;;;;16.67;9.13;;;2.30;68.90;;;;;;4993228;28;20386;-77
2022/01/22 07:27:41;;;;;;;13.43;8.17;;;2.30;68.90;;;;;;4992165;28;20035;-77
2022/01/22 07:30:07;;;;;;;19.53;9.70;;;2.30;68.70;;;;;;4995125;28;20031;-77
2022/01/22 07:32:36;;;;;;;18.30;8.80;;;2.30;68.50;;;;;;5012190;28;20026;-77
2022/01/22 07:35:04;;;;;;;16.90;8.90;;;2.30;68.50;;;;;;4997208;28;20109;-77
2022/01/22 07:37:29;;;;;;;16.97;8.73;;;2.40;68.50;;;;;;4997115;28;20435;-77
2022/01/22 07:39:55;;;;;;;15.70;8.43;;;2.40;68.70;;;;;;4996748;28;20157;-77
2022/01/22 07:42:21;;;;;;;17.53;9.83;;;2.40;68.60;;;;;;4997007;28;20538;-77
2022/01/22 07:44:47;;;;;;;22.03;10.10;;;2.40;68.50;;;;;;4996636;28;20030;-77
2022/01/22 07:47:12;;;;;;;17.30;9.73;;;2.40;68.40;;;;;;4994790;28;20026;-76
2022/01/22 07:49:38;;;;;;;15.60;9.13;;;2.40;68.50;;;;;;4993509;28;20038;-76
2022/01/22 07:52:04;;;;;;;19.00;10.20;;;2.40;68.70;;;;;;4993717;28;20105;-75
2022/01/22 07:54:32;;;;;;;27.67;13.90;;;2.50;68.50;;;;;;4995677;28;20125;-78
2022/01/22 07:56:59;;;;;;;28.10;12.37;;;2.50;68.50;;;;;;4995494;28;20053;-77
2022/01/22 07:59:24;;;;;;;15.20;10.00;;;2.50;68.30;;;;;;4996531;28;20045;-80
2022/01/22 08:01:50;;;;;;;23.23;10.20;;;2.60;68.20;;;;;;4995221;28;20027;-79
2022/01/22 08:04:23;;;;;;;20.07;9.77;;;2.70;68.10;;;;;;4996012;28;20066;-77
2022/01/22 08:06:49;;;;;;;21.27;10.00;;;2.80;68.40;;;;;;4995671;28;20077;-78
2022/01/22 08:09:15;;;;;;;22.43;11.23;;;2.80;68.10;;;;;;5010689;28;20796;-78
2022/01/22 08:11:40;;;;;;;25.40;13.73;;;2.90;67.90;;;;;;4995937;28;20028;-78
2022/01/22 08:14:09;;;;;;;27.67;15.93;;;2.90;67.50;;;;;;4993769;28;20375;-78
2022/01/22 08:16:35;;;;;;;33.13;16.33;;;3.00;67.40;;;;;;4995619;28;20029;-77
2022/01/22 08:19:01;;;;;;;29.10;17.20;;;3.00;67.60;;;;;;4995937;28;21140;-79
2022/01/22 08:21:26;;;;;;;39.07;19.17;;;3.10;67.70;;;;;;4995476;28;20109;-79
2022/01/22 08:23:52;;;;;;;38.77;20.50;;;3.10;67.80;;;;;;4993689;28;20045;-79
2022/01/22 08:26:22;;;;;;;33.03;18.13;;;3.10;67.20;;;;;;4991670;28;20453;-79
2022/01/22 08:28:54;;;;;;;34.33;18.23;;;3.20;67.30;;;;;;4990655;28;20042;-79
2022/01/22 08:31:36;;;;;;;36.87;17.13;;;3.20;67.30;;;;;;5008101;28;20145;-79
2022/01/22 08:36:48;;;;;;;25.83;12.17;;;3.40;67.20;;;;;;4991277;28;20186;-79
2022/01/22 08:39:15;;;;;;;21.43;11.27;;;3.40;66.90;;;;;;4992981;28;20040;-79
2022/01/22 08:41:41;;;;;;;23.27;11.93;;;3.40;66.80;;;;;;4995367;28;20118;-76
2022/01/22 08:44:08;;;;;;;24.67;12.03;;;3.50;66.60;;;;;;4993208;28;20109;-80
2022/01/22 08:46:37;;;;;;;23.37;12.30;;;3.60;66.40;;;;;;5002623;28;20025;-79
2022/01/22 08:49:06;;;;;;;19.43;10.70;;;3.60;66.30;;;;;;5011030;28;20060;-78
2022/01/22 08:51:33;;;;;;;22.60;11.00;;;3.70;66.10;;;;;;5014733;28;20029;-78
2022/01/22 08:54:01;;;;;;;22.87;11.80;;;3.80;66.00;;;;;;5010501;28;20022;-79
2022/01/22 08:56:28;;;;;;;20.27;11.67;;;3.90;66.10;;;;;;4994931;28;20014;-77
2022/01/22 08:58:54;;;;;;;19.80;12.23;;;3.90;65.80;;;;;;4993440;28;20027;-79
2022/01/22 09:01:20;;;;;;;22.30;11.77;;;3.90;65.60;;;;;;4995076;28;20038;-79
2022/01/22 09:03:46;;;;;;;23.97;11.33;;;4.00;65.50;;;;;;4995420;28;20018;-78
2022/01/22 09:06:12;;;;;;;22.20;11.27;;;4.00;65.40;;;;;;4995448;28;20026;-78
2022/01/22 09:08:39;;;;;;;19.13;11.40;;;4.10;65.50;;;;;;4995326;28;20492;-79
2022/01/22 09:11:06;;;;;;;19.33;10.40;;;4.10;65.40;;;;;;4996063;28;20098;-78
2022/01/22 09:13:32;;;;;;;25.60;10.57;;;4.20;65.20;;;;;;4995285;28;20109;-79
2022/01/22 09:15:59;;;;;;;22.57;10.33;;;4.30;65.10;;;;;;4995480;28;20113;-79
2022/01/22 09:18:25;;;;;;;17.53;10.10;;;4.30;65.10;;;;;;4995226;28;20109;-79
2022/01/22 09:23:17;;;;;;;30.27;16.70;;;4.40;65.00;;;;;;4995437;28;20430;-79
2022/01/22 09:25:44;;;;;;;35.37;18.03;;;4.50;65.40;;;;;;4995392;28;20026;-79
2022/01/22 09:28:12;;;;;;;35.57;17.97;;;4.60;65.50;;;;;;4994860;28;20053;-78
2022/01/22 09:30:39;;;;;;;37.23;17.97;;;4.70;65.50;;;;;;4994410;28;20022;-79
2022/01/22 09:33:05;;;;;;;24.23;14.03;;;4.70;65.40;;;;;;4993376;28;20360;-79
2022/01/22 09:35:30;;;;;;;24.93;12.37;;;4.80;66.00;;;;;;4995094;28;20049;-79
2022/01/22 09:37:57;;;;;;;24.13;13.13;;;4.90;66.70;;;;;;4995317;28;20041;-79
2022/01/22 09:40:25;;;;;;;28.67;14.37;;;5.00;66.90;;;;;;4994876;28;20476;-79
2022/01/22 09:42:51;;;;;;;24.53;12.63;;;5.00;66.00;;;;;;4994825;28;20202;-78
2022/01/22 09:45:17;;;;;;;17.17;9.20;;;5.10;65.80;;;;;;4994984;28;20030;-79
2022/01/22 09:47:48;;;;;;;16.57;8.13;;;5.20;65.70;;;;;;4994751;28;20023;-79
2022/01/22 09:50:17;;;;;;;14.80;7.47;;;5.30;65.00;;;;;;4994373;28;20030;-79
2022/01/22 09:52:45;;;;;;;19.37;8.73;;;5.30;64.10;;;;;;4994160;28;20076;-78
2022/01/22 09:55:11;;;;;;;15.60;7.00;;;5.40;63.80;;;;;;4994923;28;20038;-79
2022/01/22 09:57:38;;;;;;;11.27;6.40;;;5.50;63.10;;;;;;4994717;28;20030;-79
2022/01/22 10:00:07;;;;;;;12.23;6.07;;;5.60;62.20;;;;;;4993482;28;20483;-79
2022/01/22 10:02:43;;;;;;;9.00;5.70;;;5.70;61.80;;;;;;4994697;28;20066;-79
2022/01/22 10:05:29;;;;;;;11.90;6.30;;;5.70;61.40;;;;;;4994449;28;20084;-79
2022/01/22 10:08:19;;;;;;;11.10;5.23;;;5.80;61.00;;;;;;4994599;28;20023;-79
2022/01/22 10:10:45;;;;;;;8.90;5.20;;;5.90;60.70;;;;;;4994749;28;20018;-79
2022/01/22 10:13:11;;;;;;;12.77;5.13;;;5.90;60.40;;;;;;4994537;28;20042;-79
2022/01/22 10:15:39;;;;;;;16.77;5.80;;;6.00;58.80;;;;;;4994645;28;20471;-80
2022/01/22 10:18:05;;;;;;;10.80;5.47;;;6.00;58.30;;;;;;4994547;28;20019;-79
2022/01/22 10:20:42;;;;;;;9.97;5.33;;;6.10;58.60;;;;;;4992957;28;20034;-78
2022/01/22 10:23:23;;;;;;;10.07;5.30;;;6.10;58.60;;;;;;4994651;28;20390;-78
2022/01/22 10:25:55;;;;;;;16.70;5.87;;;6.20;57.90;;;;;;4993222;28;20490;-79
2022/01/22 10:28:24;;;;;;;9.80;5.38;;;6.30;57.20;;;;;;4992852;28;20483;-79
2022/01/22 10:31:06;;;;;;;10.30;5.33;;;6.30;57.20;;;;;;4994470;28;20387;-79
2022/01/22 10:33:33;;;;;;;10.47;5.40;;;6.40;57.40;;;;;;4994204;28;20064;-79
2022/01/22 10:36:18;;;;;;;11.20;5.30;;;6.40;56.70;;;;;;4993475;28;20557;-78
2022/01/22 10:38:45;;;;;;;12.93;5.27;;;6.50;56.60;;;;;;4994137;28;20106;-78
2022/01/22 10:41:12;;;;;;;9.50;4.50;;;6.50;55.90;;;;;;4993950;28;20038;-78
2022/01/22 10:43:42;;;;;;;11.53;4.70;;;6.60;53.60;;;;;;4994012;28;20033;-78
2022/01/22 10:48:54;;;;;;;12.23;5.60;;;6.60;54.50;;;;;;4994351;28;20037;-79
2022/01/22 10:51:20;;;;;;;9.03;4.77;;;6.70;54.50;;;;;;4994056;28;20038;-79
2022/01/22 10:54:08;;;;;;;14.70;5.13;;;6.70;54.40;;;;;;4994029;28;20023;-79
2022/01/22 10:56:34;;;;;;;12.13;5.10;;;6.80;54.40;;;;;;4993723;28;20414;-79
2022/01/22 10:59:05;;;;;;;8.90;5.60;;;6.80;54.10;;;;;;4993795;28;20023;-79
2022/01/22 11:01:54;;;;;;;15.17;5.10;;;6.90;53.90;;;;;;4993858;28;20364;-78
2022/01/22 11:04:28;;;;;;;8.40;4.63;;;6.90;53.40;;;;;;4989952;28;20121;-78
2022/01/22 11:07:01;;;;;;;14.47;5.40;;;6.90;52.90;;;;;;4993720;28;20022;-79
2022/01/22 11:09:31;;;;;;;11.60;4.53;;;7.00;52.50;;;;;;4993795;28;20026;-79
2022/01/22 11:12:02;;;;;;;14.83;5.67;;;7.00;52.60;;;;;;4993580;28;20041;-78
2022/01/22 11:14:30;;;;;;;11.00;5.40;;;7.00;52.20;;;;;;4993872;28;20034;-79
2022/01/22 11:16:57;;;;;;;10.90;5.07;;;7.10;52.60;;;;;;4993653;28;20034;-79
2022/01/22 11:19:34;;;;;;;10.33;4.90;;;7.10;53.40;;;;;;4993448;28;20099;-79
2022/01/22 11:22:15;;;;;;;9.53;4.93;;;7.20;52.90;;;;;;4992504;28;20034;-79
2022/01/22 11:24:49;;;;;;;8.87;4.77;;;7.30;51.90;;;;;;4993691;28;20026;-78
2022/01/22 11:27:20;;;;;;;11.50;5.47;;;7.30;51.90;;;;;;4993508;28;20371;-79
2022/01/22 11:30:09;;;;;;;14.03;6.63;;;7.30;51.80;;;;;;4993403;28;20030;-79
2022/01/22 11:32:48;;;;;;;20.70;9.67;;;7.40;51.70;;;;;;4993502;28;20027;-79
2022/01/22 11:35:18;;;;;;;25.77;9.60;;;7.40;51.60;;;;;;4993223;28;20141;-79
2022/01/22 11:37:47;;;;;;;31.57;12.60;;;7.50;51.60;;;;;;4993514;28;20067;-79
2022/01/22 11:40:22;;;;;;;12.97;6.00;;;7.60;51.50;;;;;;4993475;28;20041;-79
2022/01/22 11:42:56;;;;;;;15.40;7.43;;;7.60;51.40;;;;;;4993578;28;20030;-79
2022/01/22 11:45:54;;;;;;;14.80;7.47;;;7.70;51.50;;;;;;4993516;28;20022;-79
2022/01/22 11:48:24;;;;;;;12.77;7.60;;;7.80;51.90;;;;;;4993432;28;20030;-78
2022/01/22 11:51:12;;;;;;;16.53;7.00;;;7.80;52.10;;;;;;4993453;28;20383;-78
2022/01/22 11:53:38;;;;;;;20.30;7.60;;;7.90;51.60;;;;;;4989487;28;20391;-79
2022/01/22 11:56:10;;;;;;;11.60;6.90;;;8.00;50.50;;;;;;4992370;28;20391;-79
2022/01/22 11:59:07;;;;;;;13.60;7.33;;;8.00;50.30;;;;;;4990386;28;20026;-79
2022/01/22 12:01:51;;;;;;;14.77;7.40;;;8.00;50.60;;;;;;4989234;28;20137;-80
2022/01/22 12:04:20;;;;;;;14.40;7.17;;;8.10;50.90;;;;;;4990473;28;20478;-79
2022/01/22 12:07:01;;;;;;;13.70;7.13;;;8.10;51.30;;;;;;4992003;28;20026;-79
2022/01/22 12:09:30;;;;;;;10.30;6.17;;;8.20;51.50;;;;;;4993350;28;20104;-77
2022/01/22 12:14:50;;;;;;;10.73;5.87;;;8.20;50.10;;;;;;4993510;28;20162;-79
2022/01/22 12:17:24;;;;;;;12.47;6.50;;;8.30;50.30;;;;;;4996506;28;20157;-79
2022/01/22 12:22:35;;;;;;;11.67;6.13;;;8.30;50.30;;;;;;4996723;28;20030;-79
2022/01/22 12:25:22;;;;;;;10.30;5.67;;;8.40;50.20;;;;;;4992346;28;20066;-79
2022/01/22 12:27:49;;;;;;;10.17;5.60;;;8.40;49.70;;;;;;4993620;28;20034;-79
2022/01/22 12:30:36;;;;;;;13.73;6.03;;;8.40;49.90;;;;;;4995374;28;20026;-80
2022/01/22 12:33:02;;;;;;;10.67;5.43;;;8.40;49.60;;;;;;4996298;28;20497;-79
2022/01/22 12:35:37;;;;;;;13.20;5.63;;;8.40;49.70;;;;;;4995192;28;20519;-79
2022/01/22 12:38:44;;;;;;;11.47;6.00;;;8.50;49.60;;;;;;4995933;28;20399;-79
2022/01/22 12:42:11;;;;;;;12.60;6.27;;;8.50;49.70;;;;;;4996095;28;20061;-79
2022/01/22 12:46:51;;;;;;;13.77;7.27;;;8.50;50.20;;;;;;4996108;28;20042;-78
2022/01/22 12:49:20;;;;;;;14.13;7.93;;;8.50;50.10;;;;;;4995949;28;20058;-79
2022/01/22 12:51:47;;;;;;;15.30;8.57;;;8.50;50.10;;;;;;4996116;28;20026;-79
2022/01/22 12:54:12;;;;;;;12.63;7.20;;;8.50;50.10;;;;;;4994596;28;20046;-78
2022/01/22 12:56:51;;;;;;;11.37;6.67;;;8.50;50.20;;;;;;4996069;28;20052;-79
2022/01/22 12:59:18;;;;;;;16.17;8.87;;;8.50;50.00;;;;;;4994659;28;20030;-79
2022/01/22 13:01:46;;;;;;;12.63;8.80;;;8.50;50.60;;;;;;4994586;28;20489;-81
2022/01/22 13:04:12;;;;;;;21.77;8.57;;;8.50;51.00;;;;;;4995827;28;20057;-79
2022/01/22 13:06:48;;;;;;;18.30;9.60;;;8.50;51.10;;;;;;4994922;28;20026;-79
2022/01/22 13:09:14;;;;;;;16.40;9.60;;;8.50;51.20;;;;;;4994708;28;20371;-79
2022/01/22 13:11:48;;;;;;;17.00;9.73;;;8.60;51.70;;;;;;4995919;28;20022;-79
2022/01/22 13:14:16;;;;;;;14.70;9.40;;;8.50;51.60;;;;;;4994305;28;20138;-78
2022/01/22 13:16:50;;;;;;;15.23;9.63;;;8.60;51.60;;;;;;4994923;28;20057;-80
2022/01/22 13:19:16;;;;;;;13.67;8.40;;;8.60;51.90;;;;;;4995275;28;20237;-79
2022/01/22 13:22:03;;;;;;;14.23;9.27;;;8.60;52.00;;;;;;4993488;28;20031;-81
2022/01/22 13:24:30;;;;;;;17.13;8.53;;;8.70;52.00;;;;;;4994352;28;20169;-81
2022/01/22 13:27:10;;;;;;;15.17;9.07;;;8.70;51.50;;;;;;4993753;28;20026;-80
2022/01/22 13:29:40;;;;;;;18.10;9.53;;;8.70;51.40;;;;;;4995001;28;20022;-80
2022/01/22 13:32:19;;;;;;;14.77;9.77;;;8.70;51.30;;;;;;4995018;28;20061;-80
2022/01/22 13:35:51;;;;;;;16.57;9.53;;;8.80;51.60;;;;;;4993980;28;20033;-81
2022/01/22 13:48:35;;;;;;;13.90;8.73;;;8.80;50.90;;;;;;4995446;28;20030;-82
2022/01/22 13:51:03;;;;;;;17.13;9.83;;;8.80;51.30;;;;;;4996276;28;20026;-80
2022/01/22 13:53:30;;;;;;;16.60;9.63;;;8.80;51.40;;;;;;4993741;28;20486;-80
2022/01/22 13:56:05;;;;;;;17.47;9.40;;;8.80;51.50;;;;;;4990669;28;20054;-80
2022/01/22 13:58:30;;;;;;;23.63;13.10;;;8.70;51.50;;;;;;4990988;28;20030;-80
2022/01/22 14:01:04;;;;;;;27.70;15.23;;;8.80;51.70;;;;;;4993259;28;20371;-81
2022/01/22 14:03:37;;;;;;;28.97;17.73;;;8.80;53.00;;;;;;4993583;28;20494;-81
2022/01/22 14:06:05;;;;;;;27.47;17.20;;;8.80;54.70;;;;;;4994669;28;20065;-81
2022/01/22 14:08:33;;;;;;;25.50;15.13;;;8.80;55.00;;;;;;4993542;28;20030;-81
2022/01/22 14:11:06;;;;;;;29.90;18.33;;;8.70;55.10;;;;;;4994874;28;20029;-81
2022/01/22 14:13:32;;;;;;;28.20;17.37;;;8.80;56.10;;;;;;4994406;28;20368;-81
2022/01/22 14:16:15;;;;;;;26.60;17.17;;;8.70;56.10;;;;;;4994715;28;20025;-81
2022/01/22 14:18:43;;;;;;;27.90;18.30;;;8.70;56.30;;;;;;4994681;28;20023;-82
2022/01/22 14:21:14;;;;;;;26.73;17.90;;;8.70;56.30;;;;;;4994133;28;20034;-80
2022/01/22 14:23:41;;;;;;;40.07;26.27;;;8.70;56.50;;;;;;4991016;28;20361;-81
2022/01/22 14:26:12;;;;;;;47.40;28.43;;;8.70;57.70;;;;;;4989804;28;20045;-81
2022/01/22 14:29:01;;;;;;;49.63;31.20;;;8.70;58.20;;;;;;4991568;28;20395;-81
2022/01/22 14:31:35;;;;;;;41.87;27.03;;;8.70;59.40;;;;;;4993309;28;20034;-79
2022/01/22 14:34:13;;;;;;;59.43;35.13;;;8.70;59.80;;;;;;4993090;28;20498;-79
2022/01/22 14:36:45;;;;;;;63.97;39.70;;;8.60;60.80;;;;;;4993419;28;20046;-79
2022/01/22 14:39:28;;;;;;;65.10;39.60;;;8.60;61.30;;;;;;4991997;28;20074;-80
2022/01/22 14:44:51;;;;;;;59.90;34.97;;;8.60;62.90;;;;;;4993088;28;20088;-79
2022/01/22 14:47:19;;;;;;;56.53;35.97;;;8.60;63.60;;;;;;4992175;28;20399;-79